Manchester, Oklahoma
Current Conditions -  °F | °C
As of 12:15 PM on Friday 19 Dec 2014 (Local Time) from KAVK Reporting Station
Overcast Overcast  
Wind Chill: 34°   Ceiling: 2700
Heat Index: 37°   Visibility: 7mi
Dew Point: 34°   Wind: 5mph
Humidity: 87%   Direction: 170°S
Pressure: 30.23"   Gusts: NA
Location:  36.99°N, 98.04°W
Report Text: KAVK 191815Z AUTO 17004KT 7SM FEW010 OVC027 03/01 A3023 RMK AO2
Loading
Personal Weather Stations






























Interactive Weather Map New forecast layout! Learn more

10-Day Weather Forecast

Advertisements
Track Severe Weather on mobile